createdAt,value
2019-06-07T00:01:37.575Z,20.45
2019-06-07T00:04:08.545Z,20.42
2019-06-07T00:06:35.304Z,20.42
2019-06-07T00:09:04.348Z,20.40
2019-06-07T00:11:32.374Z,20.41
2019-06-07T00:14:00.346Z,20.38
2019-06-07T00:16:28.517Z,20.36
2019-06-07T00:18:56.583Z,20.37
2019-06-07T00:22:10.744Z,20.36
2019-06-07T00:23:54.447Z,20.36
2019-06-07T00:26:22.550Z,20.34
2019-06-07T00:28:50.624Z,20.34
2019-06-07T00:31:24.045Z,20.33
2019-06-07T00:33:48.351Z,20.31
2019-06-07T00:36:18.267Z,20.31
2019-06-07T00:38:46.084Z,20.30
2019-06-07T00:41:14.995Z,20.30
2019-06-07T00:43:43.806Z,20.30
2019-06-07T00:46:14.382Z,20.28
2019-06-07T00:48:41.614Z,20.27
2019-06-07T00:51:11.259Z,20.26
2019-06-07T00:53:39.522Z,20.24
2019-06-07T00:56:07.603Z,20.24
2019-06-07T00:58:35.659Z,20.21
2019-06-07T01:01:03.834Z,20.21
2019-06-07T01:03:31.907Z,20.19
2019-06-07T01:06:00.061Z,20.17
2019-06-07T01:08:30.156Z,20.19
2019-06-07T01:10:57.704Z,20.20
2019-06-07T01:13:27.047Z,20.17
2019-06-07T01:15:55.433Z,20.17
2019-06-07T01:18:37.856Z,20.14
2019-06-07T01:20:53.226Z,20.14
2019-06-07T01:24:03.291Z,20.14
2019-06-07T01:25:51.024Z,20.14
2019-06-07T01:28:21.423Z,20.12
2019-06-07T01:30:48.871Z,20.12
2019-06-07T01:33:18.291Z,20.11
2019-06-07T01:35:46.450Z,20.10
2019-06-07T01:38:14.494Z,20.08
2019-06-07T01:40:42.578Z,20.05
2019-06-07T01:43:10.573Z,20.03
2019-06-07T01:45:38.655Z,20.02
2019-06-07T01:48:06.652Z,20.02
2019-06-07T01:50:34.631Z,20.02
2019-06-07T01:53:02.768Z,20.01
2019-06-07T01:55:32.753Z,19.98
2019-06-07T01:58:00.520Z,19.99
2019-06-07T02:00:32.104Z,19.97
2019-06-07T02:02:58.358Z,19.98
2019-06-07T02:05:30.439Z,19.97
2019-06-07T02:07:56.134Z,19.95
2019-06-07T02:10:27.982Z,19.97
2019-06-07T02:12:53.936Z,19.95
2019-06-07T02:15:25.036Z,19.94
2019-06-07T02:17:51.919Z,19.94
2019-06-07T02:20:20.351Z,19.92
2019-06-07T02:22:49.047Z,19.91
2019-06-07T02:25:37.346Z,19.91
2019-06-07T02:27:47.086Z,19.89
2019-06-07T02:32:44.815Z,19.86
2019-06-07T02:35:12.791Z,19.86
2019-06-07T02:37:40.943Z,19.85
2019-06-07T02:40:08.951Z,19.85
2019-06-07T02:42:41.913Z,19.84
2019-06-07T02:45:06.741Z,19.82
2019-06-07T02:47:37.917Z,19.81
2019-06-07T02:50:05.088Z,19.79
2019-06-07T02:52:38.708Z,19.78
2019-06-07T02:55:02.808Z,19.77
2019-06-07T02:57:36.972Z,19.77
2019-06-07T03:00:07.553Z,19.77
2019-06-07T03:02:33.280Z,19.75
2019-06-07T03:05:00.029Z,19.76
2019-06-07T03:07:30.042Z,19.74
2019-06-07T03:09:57.798Z,19.73
2019-06-07T03:12:26.565Z,19.72
2019-06-07T03:14:54.726Z,19.70
2019-06-07T03:17:38.904Z,19.69
2019-06-07T03:20:07.948Z,19.67
2019-06-07T03:22:39.923Z,19.67
2019-06-07T03:25:06.060Z,19.63
2019-06-07T03:27:41.521Z,19.62
2019-06-07T03:30:35.039Z,19.62
2019-06-07T03:32:38.606Z,19.62
2019-06-07T03:35:03.187Z,19.64
2019-06-07T03:37:37.583Z,19.62
2019-06-07T03:40:00.904Z,19.61
2019-06-07T03:42:29.246Z,19.59
2019-06-07T03:44:57.361Z,19.58
2019-06-07T03:47:25.463Z,19.58
2019-06-07T03:49:54.208Z,19.56
2019-06-07T03:52:22.239Z,19.57
2019-06-07T03:54:50.220Z,19.57
2019-06-07T03:57:18.287Z,19.56
2019-06-07T03:59:46.379Z,19.54
2019-06-07T04:02:14.536Z,19.54
2019-06-07T04:04:42.609Z,19.54
2019-06-07T04:07:10.586Z,19.53
2019-06-07T04:09:42.501Z,19.53
2019-06-07T04:12:08.236Z,19.53
2019-06-07T04:14:38.519Z,19.53
2019-06-07T04:17:05.929Z,19.51
2019-06-07T04:19:37.265Z,19.49
2019-06-07T04:22:03.880Z,19.51
2019-06-07T04:24:34.692Z,19.50
2019-06-07T04:27:01.715Z,19.49
2019-06-07T04:29:34.101Z,19.47
2019-06-07T04:31:59.509Z,19.48
2019-06-07T04:34:29.321Z,19.48
2019-06-07T04:36:59.618Z,19.49
2019-06-07T04:39:27.022Z,19.48
2019-06-07T04:41:55.310Z,19.47
2019-06-07T04:44:23.982Z,19.48
2019-06-07T04:46:52.048Z,19.48
2019-06-07T04:49:20.278Z,19.46
2019-06-07T04:51:48.338Z,19.47
2019-06-07T04:54:16.511Z,19.48
2019-06-07T04:56:44.938Z,19.48
2019-06-07T04:59:13.034Z,19.49
2019-06-07T05:01:42.728Z,19.48
2019-06-07T05:04:11.050Z,19.51
2019-06-07T05:06:40.332Z,19.52
2019-06-07T05:09:08.842Z,19.53
2019-06-07T05:11:39.308Z,19.52
2019-06-07T05:14:06.654Z,19.53
2019-06-07T05:16:36.824Z,19.52
2019-06-07T05:19:04.536Z,19.51
2019-06-07T05:21:56.056Z,19.53
2019-06-07T05:24:09.806Z,19.54
2019-06-07T05:26:33.050Z,19.57
2019-06-07T05:29:01.782Z,19.58
2019-06-07T05:31:31.077Z,19.59
2019-06-07T05:33:59.473Z,19.62
2019-06-07T05:36:27.522Z,19.63
2019-06-07T05:38:55.598Z,19.68
2019-06-07T05:41:23.583Z,19.71
2019-06-07T05:44:11.228Z,19.73
2019-06-07T05:46:21.354Z,19.74
2019-06-07T05:48:49.369Z,19.77
2019-06-07T05:51:17.463Z,19.79
2019-06-07T05:53:46.209Z,19.80
2019-06-07T05:56:15.147Z,19.82
2019-06-07T05:58:44.749Z,19.83
2019-06-07T06:01:52.410Z,19.87
2019-06-07T06:03:43.915Z,19.90
2019-06-07T06:06:12.152Z,19.93
2019-06-07T06:08:42.488Z,19.98
2019-06-07T06:11:10.057Z,20.03
2019-06-07T06:13:53.883Z,20.06
2019-06-07T06:16:07.766Z,20.08
2019-06-07T06:18:35.887Z,20.11
2019-06-07T06:21:18.809Z,20.14
2019-06-07T06:23:33.678Z,20.17
2019-06-07T06:26:01.758Z,20.19
2019-06-07T06:28:29.809Z,20.22
2019-06-07T06:30:57.916Z,20.25
2019-06-07T06:33:33.787Z,20.27
2019-06-07T06:35:55.701Z,20.31
2019-06-07T06:38:23.706Z,20.34
2019-06-07T06:41:05.234Z,20.36
2019-06-07T06:43:21.419Z,20.40
2019-06-07T06:45:50.656Z,20.40
2019-06-07T06:48:18.955Z,20.37
2019-06-07T06:50:51.844Z,20.36
2019-06-07T06:53:16.709Z,20.37
2019-06-07T06:55:49.254Z,20.38
2019-06-07T06:58:14.457Z,20.42
2019-06-07T07:00:52.279Z,20.45
2019-06-07T07:05:46.290Z,20.52
2019-06-07T07:08:13.450Z,20.57
2019-06-07T07:10:43.099Z,20.59
2019-06-07T07:13:11.535Z,20.64
2019-06-07T07:15:57.596Z,20.68
2019-06-07T07:18:09.438Z,20.71
2019-06-07T07:20:37.618Z,20.78
2019-06-07T07:23:05.815Z,20.82
2019-06-07T07:25:33.995Z,20.85
2019-06-07T07:28:01.974Z,20.91
2019-06-07T07:30:41.953Z,20.96
2019-06-07T07:33:10.151Z,21.01
2019-06-07T07:35:38.230Z,21.04
2019-06-07T07:38:06.373Z,21.03
2019-06-07T07:40:56.811Z,21.05
2019-06-07T07:43:04.512Z,21.09
2019-06-07T07:45:32.632Z,21.16
2019-06-07T07:48:14.769Z,21.16
2019-06-07T07:50:30.280Z,21.20
2019-06-07T07:53:00.486Z,21.22
2019-06-07T07:55:28.100Z,21.27
2019-06-07T07:58:01.638Z,21.24
2019-06-07T08:00:50.184Z,21.29
2019-06-07T08:02:58.860Z,21.34
2019-06-07T08:05:41.902Z,21.34
2019-06-07T08:08:00.283Z,21.38
2019-06-07T08:10:25.232Z,21.39
2019-06-07T08:13:18.191Z,21.48
2019-06-07T08:15:22.936Z,21.51
2019-06-07T08:17:57.116Z,21.49
2019-06-07T08:20:39.786Z,21.56
2019-06-07T08:23:07.846Z,21.56
2019-06-07T08:25:35.919Z,21.63
2019-06-07T08:28:03.935Z,21.58
2019-06-07T08:30:52.351Z,21.63
2019-06-07T08:33:24.681Z,21.66
2019-06-07T08:36:03.624Z,21.66
2019-06-07T08:38:25.109Z,21.61
2019-06-07T08:40:30.787Z,21.59
2019-06-07T08:43:13.071Z,21.65
2019-06-07T08:45:28.662Z,21.66
2019-06-07T08:48:01.669Z,21.69
2019-06-07T08:50:26.436Z,21.67
2019-06-07T08:53:00.061Z,21.73
2019-06-07T08:55:24.251Z,21.76
2019-06-07T08:57:57.644Z,21.79
2019-06-07T09:02:53.177Z,21.71
2019-06-07T09:05:21.591Z,21.73
2019-06-07T09:08:07.085Z,21.72
2019-06-07T09:10:19.362Z,21.68
2019-06-07T09:12:47.410Z,21.73
2019-06-07T09:15:23.400Z,21.71
2019-06-07T09:18:30.483Z,21.72
2019-06-07T09:20:35.910Z,21.77
2019-06-07T09:22:45.315Z,21.84
2019-06-07T09:25:20.887Z,21.88
2019-06-07T09:27:44.231Z,21.83
2019-06-07T09:30:18.399Z,21.85
2019-06-07T09:32:42.029Z,21.90
2019-06-07T09:35:16.452Z,21.92
2019-06-07T09:38:04.140Z,21.95
2019-06-07T09:40:21.734Z,21.92
2019-06-07T09:42:39.505Z,21.97
2019-06-07T09:45:11.673Z,22.02
2019-06-07T09:47:37.687Z,22.12
2019-06-07T09:50:11.305Z,22.05
2019-06-07T09:52:57.003Z,22.04
2019-06-07T09:55:21.741Z,22.10
2019-06-07T09:57:35.212Z,22.06
2019-06-07T10:00:33.603Z,22.08
2019-06-07T10:02:33.111Z,22.09
2019-06-07T10:05:04.020Z,22.12
2019-06-07T10:07:32.096Z,22.11
2019-06-07T10:12:30.123Z,22.18
2019-06-07T10:14:58.721Z,22.17
2019-06-07T10:17:26.808Z,22.20
2019-06-07T10:19:54.941Z,22.22
2019-06-07T10:22:23.024Z,22.22
2019-06-07T10:24:51.210Z,22.26
2019-06-07T10:27:19.195Z,22.26
2019-06-07T10:29:47.343Z,22.35
2019-06-07T10:32:15.430Z,22.31
2019-06-07T10:34:43.411Z,22.31
2019-06-07T10:37:15.159Z,22.36
2019-06-07T10:39:48.719Z,22.36
2019-06-07T10:42:11.604Z,22.33
2019-06-07T10:44:39.843Z,22.34
2019-06-07T10:47:08.196Z,22.35
2019-06-07T10:49:36.320Z,22.34
2019-06-07T10:52:06.614Z,22.37
2019-06-07T10:54:34.186Z,22.33
2019-06-07T10:57:02.922Z,22.31
2019-06-07T10:59:30.965Z,22.31
2019-06-07T11:01:59.042Z,22.28
2019-06-07T11:04:27.165Z,22.27
2019-06-07T11:06:55.192Z,22.25
2019-06-07T11:09:23.344Z,22.24
2019-06-07T11:11:51.321Z,22.23
2019-06-07T11:14:19.407Z,22.24
2019-06-07T11:16:47.394Z,22.25
2019-06-07T11:19:17.789Z,22.24
2019-06-07T11:21:45.262Z,22.23
2019-06-07T11:24:14.419Z,22.26
2019-06-07T11:26:42.607Z,22.24
2019-06-07T11:29:10.988Z,22.23
2019-06-07T11:31:39.379Z,22.24
2019-06-07T11:34:08.249Z,22.23
2019-06-07T11:36:36.419Z,22.24
2019-06-07T11:39:06.508Z,22.23
2019-06-07T11:41:34.576Z,22.21
2019-06-07T11:44:02.635Z,22.21
2019-06-07T11:46:30.749Z,22.20
2019-06-07T11:48:58.778Z,22.22
2019-06-07T11:51:26.783Z,22.22
2019-06-07T11:53:54.795Z,22.22
2019-06-07T11:56:22.868Z,22.24
2019-06-07T11:58:50.870Z,22.25
2019-06-07T12:01:18.918Z,22.26
2019-06-07T12:03:47.082Z,22.28
2019-06-07T12:06:16.390Z,22.30
2019-06-07T12:08:44.553Z,22.31
2019-06-07T12:11:12.595Z,22.31
2019-06-07T12:13:40.619Z,22.34
2019-06-07T12:16:09.128Z,22.36
2019-06-07T12:18:37.323Z,22.38
2019-06-07T12:21:05.303Z,22.39
2019-06-07T12:23:33.296Z,22.40
2019-06-07T12:26:01.271Z,22.42
2019-06-07T12:28:29.261Z,22.44
2019-06-07T12:30:57.238Z,22.48
2019-06-07T12:33:25.233Z,22.48
2019-06-07T12:35:53.267Z,22.52
2019-06-07T12:38:22.946Z,22.52
2019-06-07T12:40:57.626Z,22.56
2019-06-07T12:43:20.920Z,22.54
2019-06-07T12:45:48.943Z,22.57
2019-06-07T12:48:20.777Z,22.57
2019-06-07T12:50:46.610Z,22.58
2019-06-07T12:53:15.640Z,22.56
2019-06-07T12:55:43.840Z,22.58
2019-06-07T12:58:11.827Z,22.58
2019-06-07T13:00:39.827Z,22.59
2019-06-07T13:03:07.801Z,22.61
2019-06-07T13:05:35.871Z,22.63
2019-06-07T13:08:03.924Z,22.66
2019-06-07T13:10:32.003Z,22.68
2019-06-07T13:13:00.049Z,22.73
2019-06-07T13:15:28.300Z,22.73
2019-06-07T13:17:56.459Z,22.76
2019-06-07T13:20:24.794Z,22.76
2019-06-07T13:22:52.943Z,22.81
2019-06-07T13:25:21.692Z,22.83
2019-06-07T13:27:50.856Z,22.87
2019-06-07T13:30:19.065Z,22.89
2019-06-07T13:32:47.104Z,22.94
2019-06-07T13:35:15.689Z,22.94
2019-06-07T13:37:44.482Z,22.96
2019-06-07T13:40:12.654Z,22.97
2019-06-07T13:42:40.640Z,23.00
2019-06-07T13:45:08.711Z,23.01
2019-06-07T13:47:36.709Z,23.04
2019-06-07T13:50:05.090Z,23.06
2019-06-07T13:52:33.162Z,23.14
2019-06-07T13:55:02.451Z,23.13
2019-06-07T13:57:30.841Z,23.12
2019-06-07T13:59:58.830Z,23.13
2019-06-07T14:02:27.889Z,23.17
2019-06-07T14:04:56.540Z,23.20
2019-06-07T14:07:26.380Z,23.24
2019-06-07T14:09:54.207Z,23.30
2019-06-07T14:12:24.039Z,23.30
2019-06-07T14:14:52.037Z,23.33
2019-06-07T14:17:21.146Z,23.38
2019-06-07T14:19:49.195Z,23.44
2019-06-07T14:22:17.271Z,23.47
2019-06-07T14:24:45.327Z,23.42
2019-06-07T14:27:13.332Z,23.49
2019-06-07T14:29:41.415Z,23.53
2019-06-07T14:32:09.671Z,23.54
2019-06-07T14:34:37.688Z,23.59
2019-06-07T14:37:05.790Z,23.55
2019-06-07T14:39:33.787Z,23.61
2019-06-07T14:42:09.269Z,23.58
2019-06-07T14:44:31.690Z,23.60
2019-06-07T14:46:59.909Z,23.64
2019-06-07T14:49:28.209Z,23.63
2019-06-07T14:51:56.406Z,23.66
2019-06-07T14:54:24.609Z,23.69
2019-06-07T14:56:52.639Z,23.74
2019-06-07T14:59:20.683Z,23.80
2019-06-07T15:01:48.770Z,23.81
2019-06-07T15:04:16.783Z,23.83
2019-06-07T15:06:44.924Z,23.87
2019-06-07T15:09:12.974Z,23.91
2019-06-07T15:11:41.124Z,23.99
2019-06-07T15:14:09.257Z,23.97
2019-06-07T15:16:37.963Z,23.86
2019-06-07T15:19:06.174Z,23.87
2019-06-07T15:21:35.112Z,23.86
2019-06-07T15:24:03.156Z,23.89
2019-06-07T15:26:32.454Z,23.90
2019-06-07T15:29:00.680Z,23.99
2019-06-07T15:31:29.891Z,24.03
2019-06-07T15:33:58.043Z,24.05
2019-06-07T15:36:26.164Z,24.07
2019-06-07T15:38:54.216Z,24.11
2019-06-07T15:41:22.222Z,24.16
2019-06-07T15:43:50.289Z,24.16
2019-06-07T15:46:18.372Z,24.21
2019-06-07T15:48:46.414Z,24.24
2019-06-07T15:51:14.590Z,24.26
2019-06-07T15:53:44.751Z,24.28
2019-06-07T15:56:12.419Z,24.37
2019-06-07T15:58:41.374Z,24.40
2019-06-07T16:01:09.632Z,24.45
2019-06-07T16:03:38.045Z,24.50
2019-06-07T16:06:06.162Z,24.54
2019-06-07T16:08:34.349Z,24.51
2019-06-07T16:11:02.424Z,24.53
2019-06-07T16:13:30.495Z,24.55
2019-06-07T16:15:58.543Z,24.60
2019-06-07T16:18:26.669Z,24.60
2019-06-07T16:20:54.769Z,24.63
2019-06-07T16:23:22.827Z,24.63
2019-06-07T16:25:50.875Z,24.61
2019-06-07T16:28:18.955Z,24.63
2019-06-07T16:30:47.064Z,24.64
2019-06-07T16:33:15.518Z,24.66
2019-06-07T16:35:43.495Z,24.64
2019-06-07T16:38:11.490Z,24.63
2019-06-07T16:40:40.326Z,24.56
2019-06-07T16:45:44.873Z,24.49
2019-06-07T16:48:13.055Z,24.41
2019-06-07T16:50:41.059Z,24.35
2019-06-07T16:53:09.059Z,24.33
2019-06-07T16:55:38.389Z,24.31
2019-06-07T16:58:06.735Z,24.29
2019-06-07T17:00:34.706Z,24.27
2019-06-07T17:03:02.787Z,24.29
2019-06-07T17:05:30.783Z,24.32
2019-06-07T17:07:58.822Z,24.32
2019-06-07T17:10:26.866Z,24.34
2019-06-07T17:12:54.858Z,24.38
2019-06-07T17:15:22.848Z,24.43
2019-06-07T17:17:50.845Z,24.42
2019-06-07T17:20:18.994Z,24.46
2019-06-07T17:22:47.458Z,24.47
2019-06-07T17:25:15.643Z,24.47
2019-06-07T17:27:43.993Z,24.50
2019-06-07T17:30:12.071Z,24.49
2019-06-07T17:32:53.225Z,24.50
2019-06-07T17:35:09.843Z,24.38
2019-06-07T17:37:37.995Z,24.52
2019-06-07T17:40:06.056Z,24.52
2019-06-07T17:42:34.194Z,24.52
2019-06-07T17:45:02.261Z,24.49
2019-06-07T17:47:30.328Z,24.49
2019-06-07T17:49:58.522Z,24.44
2019-06-07T17:52:26.547Z,24.40
2019-06-07T17:54:54.678Z,24.35
2019-06-07T17:57:22.723Z,24.32
2019-06-07T17:59:50.795Z,24.30
2019-06-07T18:02:18.858Z,24.25
2019-06-07T18:04:47.291Z,24.21
2019-06-07T18:07:15.434Z,24.14
2019-06-07T18:09:43.446Z,24.11
2019-06-07T18:12:11.491Z,24.08
2019-06-07T18:14:39.538Z,24.05
2019-06-07T18:17:07.663Z,24.01
2019-06-07T18:19:35.728Z,23.97
2019-06-07T18:22:03.771Z,23.96
2019-06-07T18:24:31.907Z,23.92
2019-06-07T18:26:59.982Z,23.89
2019-06-07T18:29:28.067Z,23.85
2019-06-07T18:31:56.130Z,23.83
2019-06-07T18:34:24.211Z,23.80
2019-06-07T18:36:53.117Z,23.78
2019-06-07T18:39:21.285Z,23.75
2019-06-07T18:41:49.403Z,23.72
2019-06-07T18:44:21.699Z,23.70
2019-06-07T18:46:48.145Z,23.68
2019-06-07T18:49:16.251Z,23.67
2019-06-07T18:51:47.422Z,23.65
2019-06-07T18:54:15.515Z,23.62
2019-06-07T18:56:43.500Z,23.61
2019-06-07T18:59:11.552Z,23.59
2019-06-07T19:01:39.591Z,23.57
2019-06-07T19:04:07.599Z,23.55
2019-06-07T19:06:35.642Z,23.54
2019-06-07T19:09:04.107Z,23.52
2019-06-07T19:11:32.178Z,23.50
2019-06-07T19:14:00.194Z,23.49
2019-06-07T19:16:28.180Z,23.46
2019-06-07T19:18:56.226Z,23.46
2019-06-07T19:21:24.379Z,23.43
2019-06-07T19:23:52.379Z,23.39
2019-06-07T19:26:20.368Z,23.38
2019-06-07T19:28:48.438Z,23.36
2019-06-07T19:31:16.499Z,23.32
2019-06-07T19:33:49.098Z,23.29
2019-06-07T19:36:14.192Z,23.27
2019-06-07T19:38:42.351Z,23.23
2019-06-07T19:41:19.387Z,23.20
2019-06-07T19:43:40.131Z,23.16
2019-06-07T19:46:08.234Z,23.13
2019-06-07T19:48:36.298Z,23.10
2019-06-07T19:51:04.372Z,23.05
2019-06-07T19:53:32.403Z,23.04
2019-06-07T19:56:01.459Z,23.00
2019-06-07T19:58:29.510Z,22.98
2019-06-07T20:00:57.636Z,22.95
2019-06-07T20:03:25.822Z,22.92
2019-06-07T20:05:54.067Z,22.90
2019-06-07T20:08:22.300Z,22.87
2019-06-07T20:10:50.450Z,22.83
2019-06-07T20:13:19.202Z,22.81
2019-06-07T20:15:47.252Z,22.79
2019-06-07T20:18:15.302Z,22.76
2019-06-07T20:20:43.405Z,22.75
2019-06-07T20:23:11.461Z,22.75
2019-06-07T20:25:39.486Z,22.74
2019-06-07T20:28:07.604Z,22.72
2019-06-07T20:30:35.684Z,22.70
2019-06-07T20:33:04.021Z,22.69
2019-06-07T20:35:32.203Z,22.67
2019-06-07T20:38:01.091Z,22.66
2019-06-07T20:40:29.282Z,22.64
2019-06-07T20:42:57.513Z,22.64
2019-06-07T20:45:33.684Z,22.62
2019-06-07T20:47:55.415Z,22.58
2019-06-07T20:50:23.421Z,22.57
2019-06-07T20:52:51.606Z,22.57
2019-06-07T20:55:19.680Z,22.53
2019-06-07T20:57:47.734Z,22.55
2019-06-07T21:00:21.380Z,22.53
2019-06-07T21:02:45.530Z,22.54
2019-06-07T21:05:13.550Z,22.55
2019-06-07T21:07:41.561Z,22.53
2019-06-07T21:10:10.738Z,22.53
2019-06-07T21:12:39.056Z,22.52
2019-06-07T21:15:11.906Z,22.51
2019-06-07T21:17:36.801Z,22.50
2019-06-07T21:20:05.966Z,22.49
2019-06-07T21:22:34.538Z,22.46
2019-06-07T21:25:03.211Z,22.46
2019-06-07T21:27:31.445Z,22.44
2019-06-07T21:29:59.479Z,22.43
2019-06-07T21:32:27.463Z,22.41
2019-06-07T21:34:55.530Z,22.39
2019-06-07T21:37:23.623Z,22.39
2019-06-07T21:39:51.745Z,22.38
2019-06-07T21:42:19.827Z,22.37
2019-06-07T21:44:47.815Z,22.37
2019-06-07T21:47:15.823Z,22.35
2019-06-07T21:49:43.808Z,22.35
2019-06-07T21:52:12.907Z,22.32
2019-06-07T21:54:41.021Z,22.31
2019-06-07T21:57:09.057Z,22.28
2019-06-07T21:59:37.067Z,22.26
2019-06-07T22:02:05.502Z,22.26
2019-06-07T22:04:33.499Z,22.25
2019-06-07T22:07:01.568Z,22.24
2019-06-07T22:09:29.563Z,22.24
2019-06-07T22:11:57.563Z,22.23
2019-06-07T22:14:25.539Z,22.22
2019-06-07T22:16:53.642Z,22.21
2019-06-07T22:19:21.775Z,22.21
2019-06-07T22:22:02.246Z,22.19
2019-06-07T22:24:19.641Z,22.20
2019-06-07T22:26:47.721Z,22.19
2019-06-07T22:29:15.902Z,22.19
2019-06-07T22:31:43.908Z,22.17
2019-06-07T22:34:12.763Z,22.16
2019-06-07T22:36:40.967Z,22.15
2019-06-07T22:39:09.644Z,22.14
2019-06-07T22:41:37.748Z,22.13
2019-06-07T22:44:06.935Z,22.12
2019-06-07T22:46:37.711Z,22.12
2019-06-07T22:49:05.059Z,22.11
2019-06-07T22:51:33.082Z,22.10
2019-06-07T22:54:01.055Z,22.09
2019-06-07T22:56:34.497Z,22.08
2019-06-07T22:59:02.626Z,22.05
2019-06-07T23:01:30.702Z,22.03
2019-06-07T23:03:58.685Z,22.00
2019-06-07T23:06:26.855Z,21.98
2019-06-07T23:08:54.902Z,21.97
2019-06-07T23:11:22.911Z,21.95
2019-06-07T23:13:50.978Z,21.94
2019-06-07T23:16:19.888Z,21.93
2019-06-07T23:18:47.967Z,21.91
2019-06-07T23:21:16.076Z,21.90
2019-06-07T23:23:44.117Z,21.89
2019-06-07T23:26:12.258Z,21.87
2019-06-07T23:28:40.375Z,21.86
2019-06-07T23:31:08.454Z,21.84
2019-06-07T23:33:36.458Z,21.83
2019-06-07T23:36:04.520Z,21.84
2019-06-07T23:38:32.646Z,21.83
2019-06-07T23:41:00.787Z,21.83
2019-06-07T23:43:28.859Z,21.80
2019-06-07T23:45:56.875Z,21.81
2019-06-07T23:48:25.005Z,21.77
2019-06-07T23:50:53.002Z,21.75
2019-06-07T23:53:22.184Z,21.72
2019-06-07T23:55:50.449Z,21.71
2019-06-07T23:58:18.639Z,21.69
